createdAt,value
2022-10-13T00:00:55.056Z,6.22
2022-10-13T00:03:22.245Z,6.20
2022-10-13T00:05:51.189Z,6.25
2022-10-13T00:08:21.306Z,5.72
2022-10-13T00:10:50.455Z,5.93
2022-10-13T00:13:18.379Z,5.95
2022-10-13T00:15:46.797Z,6.38
2022-10-13T00:18:14.613Z,6.13
2022-10-13T00:20:49.493Z,6.32
2022-10-13T00:23:17.260Z,6.05
2022-10-13T00:25:46.301Z,6.30
2022-10-13T00:28:15.437Z,7.32
2022-10-13T00:30:43.108Z,6.65
2022-10-13T00:33:11.589Z,6.32
2022-10-13T00:35:46.425Z,6.25
2022-10-13T00:38:14.130Z,6.05
2022-10-13T00:40:48.194Z,6.18
2022-10-13T00:43:49.747Z,6.18
2022-10-13T00:46:17.105Z,6.25
2022-10-13T00:48:46.307Z,5.55
2022-10-13T00:51:16.367Z,6.32
2022-10-13T00:53:44.387Z,5.80
2022-10-13T00:56:13.278Z,5.45
2022-10-13T00:58:40.887Z,5.35
2022-10-13T01:01:08.578Z,5.75
2022-10-13T01:03:36.516Z,5.10
2022-10-13T01:06:06.021Z,5.20
2022-10-13T01:08:34.246Z,4.30
2022-10-13T01:11:10.714Z,5.18
2022-10-13T01:13:41.089Z,4.57
2022-10-13T01:16:28.102Z,5.07
2022-10-13T01:19:34.165Z,4.97
2022-10-13T01:22:43.298Z,4.90
2022-10-13T01:25:23.861Z,4.20
2022-10-13T01:28:24.020Z,5.50
2022-10-13T01:31:03.607Z,4.82
2022-10-13T01:33:43.779Z,4.47
2022-10-13T01:36:45.132Z,4.32
2022-10-13T01:39:42.795Z,4.57
2022-10-13T01:42:24.434Z,5.10
2022-10-13T01:44:57.143Z,4.05
2022-10-13T01:47:26.720Z,5.93
2022-10-13T01:49:55.405Z,5.40
2022-10-13T01:52:27.163Z,5.70
2022-10-13T01:54:54.934Z,5.65
2022-10-13T01:57:34.830Z,5.63
2022-10-13T02:00:08.529Z,4.95
2022-10-13T02:03:02.710Z,5.20
2022-10-13T02:05:32.985Z,4.88
2022-10-13T02:08:25.222Z,4.78
2022-10-13T02:11:18.508Z,5.00
2022-10-13T02:14:05.704Z,5.40
2022-10-13T02:16:38.335Z,5.35
2022-10-13T02:19:08.502Z,4.55
2022-10-13T02:21:36.519Z,5.70
2022-10-13T02:24:07.048Z,4.55
2022-10-13T02:26:35.323Z,4.43
2022-10-13T02:29:17.935Z,4.53
2022-10-13T02:31:46.418Z,4.70
2022-10-13T02:34:14.179Z,4.90
2022-10-13T02:36:41.840Z,4.57
2022-10-13T02:39:12.067Z,4.60
2022-10-13T02:41:39.314Z,4.55
2022-10-13T02:44:07.029Z,4.78
2022-10-13T02:46:34.177Z,5.22
2022-10-13T02:49:01.274Z,5.13
2022-10-13T02:51:28.319Z,5.60
2022-10-13T02:53:59.721Z,6.28
2022-10-13T02:56:26.664Z,5.50
2022-10-13T02:58:54.051Z,5.80
2022-10-13T03:01:21.114Z,5.40
2022-10-13T03:03:48.112Z,5.97
2022-10-13T03:06:15.313Z,5.57
2022-10-13T03:08:42.514Z,5.50
2022-10-13T03:11:09.508Z,6.38
2022-10-13T03:13:37.556Z,5.00
2022-10-13T03:16:04.755Z,5.05
2022-10-13T03:18:32.034Z,4.93
2022-10-13T03:21:04.817Z,4.85
2022-10-13T03:23:33.037Z,5.13
2022-10-13T03:26:00.444Z,5.20
2022-10-13T03:28:27.693Z,5.18
2022-10-13T03:31:03.813Z,5.85
2022-10-13T03:33:30.903Z,4.85
2022-10-13T03:36:02.094Z,5.57
2022-10-13T03:38:30.628Z,5.20
2022-10-13T03:40:57.781Z,5.22
2022-10-13T03:43:25.234Z,4.50
2022-10-13T03:45:56.787Z,4.53
2022-10-13T03:48:23.883Z,4.97
2022-10-13T03:50:51.339Z,4.50
2022-10-13T03:53:18.541Z,5.45
2022-10-13T03:55:56.595Z,5.35
2022-10-13T03:58:25.383Z,5.10
2022-10-13T04:00:52.694Z,3.83
2022-10-13T04:03:19.837Z,4.03
2022-10-13T04:05:47.446Z,4.07
2022-10-13T04:08:14.902Z,4.60
2022-10-13T04:10:42.461Z,5.43
2022-10-13T04:13:09.508Z,5.80
2022-10-13T04:15:37.988Z,5.38
2022-10-13T04:18:07.287Z,5.30
2022-10-13T04:20:41.348Z,4.90
2022-10-13T04:23:08.432Z,4.95
2022-10-13T04:25:39.337Z,5.00
2022-10-13T04:28:07.661Z,5.78
2022-10-13T04:30:35.795Z,6.07
2022-10-13T04:33:02.817Z,5.72
2022-10-13T04:35:30.235Z,5.50
2022-10-13T04:37:59.999Z,5.93
2022-10-13T04:40:27.811Z,5.47
2022-10-13T04:42:54.959Z,4.97
2022-10-13T04:45:21.959Z,5.63
2022-10-13T04:47:48.950Z,5.20
2022-10-13T04:50:16.215Z,6.25
2022-10-13T04:52:43.249Z,5.93
2022-10-13T04:55:10.502Z,4.55
2022-10-13T04:57:37.702Z,4.50
2022-10-13T05:00:07.414Z,7.85
2022-10-13T05:02:38.659Z,6.50
2022-10-13T05:05:06.267Z,7.03
2022-10-13T05:07:33.262Z,6.78
2022-10-13T05:10:00.207Z,6.72
2022-10-13T05:12:27.203Z,4.70
2022-10-13T05:14:54.351Z,4.97
2022-10-13T05:17:22.934Z,6.22
2022-10-13T05:19:50.294Z,6.97
2022-10-13T05:22:17.841Z,6.47
2022-10-13T05:24:45.153Z,5.60
2022-10-13T05:27:13.683Z,6.80
2022-10-13T05:29:41.445Z,6.85
2022-10-13T05:32:08.675Z,6.65
2022-10-13T05:34:35.755Z,5.43
2022-10-13T05:37:02.791Z,4.38
2022-10-13T05:39:29.924Z,5.28
2022-10-13T05:41:56.988Z,5.97
2022-10-13T05:44:24.802Z,6.20
2022-10-13T05:46:51.851Z,7.47
2022-10-13T05:49:18.948Z,5.30
2022-10-13T05:51:49.066Z,5.53
2022-10-13T05:54:43.814Z,7.40
2022-10-13T05:57:36.868Z,7.20
2022-10-13T06:00:10.265Z,6.85
2022-10-13T06:02:52.057Z,6.78
2022-10-13T06:05:21.869Z,6.80
2022-10-13T06:07:48.864Z,6.53
2022-10-13T06:10:16.168Z,6.00
2022-10-13T06:12:43.215Z,6.40
2022-10-13T06:15:10.825Z,6.13
2022-10-13T06:17:39.100Z,6.05
2022-10-13T06:20:07.683Z,5.90
2022-10-13T06:22:35.804Z,6.82
2022-10-13T06:25:03.619Z,5.88
2022-10-13T06:27:31.895Z,5.70
2022-10-13T06:29:58.846Z,6.38
2022-10-13T06:32:25.889Z,6.13
2022-10-13T06:34:52.831Z,4.97
2022-10-13T06:37:24.662Z,3.38
2022-10-13T06:39:55.066Z,4.07
2022-10-13T06:42:22.474Z,5.68
2022-10-13T06:44:49.774Z,7.18
2022-10-13T06:47:16.821Z,4.97
2022-10-13T06:49:43.768Z,5.53
2022-10-13T06:52:10.864Z,6.47
2022-10-13T06:54:38.115Z,7.18
2022-10-13T06:57:06.698Z,6.57
2022-10-13T06:59:34.027Z,5.30
2022-10-13T07:02:01.048Z,6.63
2022-10-13T07:04:28.510Z,6.40
2022-10-13T07:06:55.551Z,6.88
2022-10-13T07:09:22.489Z,6.03
2022-10-13T07:11:50.387Z,6.55
2022-10-13T07:14:17.410Z,7.82
2022-10-13T07:16:44.819Z,6.53
2022-10-13T07:19:11.811Z,6.00
2022-10-13T07:21:38.910Z,6.32
2022-10-13T07:24:07.080Z,5.97
2022-10-13T07:26:34.537Z,5.25
2022-10-13T07:29:03.684Z,5.93
2022-10-13T07:31:31.087Z,6.60
2022-10-13T07:33:59.569Z,5.72
2022-10-13T07:36:27.646Z,6.20
2022-10-13T07:38:54.687Z,7.07
2022-10-13T07:41:23.270Z,6.75
2022-10-13T07:43:54.157Z,7.38
2022-10-13T07:46:21.767Z,7.20
2022-10-13T07:48:48.916Z,6.82
2022-10-13T07:51:15.963Z,7.15
2022-10-13T07:53:43.523Z,6.47
2022-10-13T07:56:13.026Z,7.18
2022-10-13T07:58:44.220Z,6.70
2022-10-13T08:01:12.170Z,6.53
2022-10-13T08:03:43.024Z,7.45
2022-10-13T08:06:12.894Z,6.60
2022-10-13T08:08:40.808Z,6.40
2022-10-13T08:11:14.653Z,5.32
2022-10-13T08:13:46.367Z,6.63
2022-10-13T08:16:13.721Z,6.20
2022-10-13T08:18:40.768Z,6.65
2022-10-13T08:21:45.862Z,6.40
2022-10-13T08:23:59.900Z,5.90
2022-10-13T08:26:29.147Z,5.82
2022-10-13T08:29:20.799Z,7.07
2022-10-13T08:31:43.768Z,5.13
2022-10-13T08:34:11.286Z,6.50
2022-10-13T08:36:39.405Z,7.25
2022-10-13T08:39:06.961Z,7.28
2022-10-13T08:41:41.380Z,7.30
2022-10-13T08:47:38.604Z,6.97
2022-10-13T08:50:16.088Z,7.00
2022-10-13T08:53:07.416Z,7.63
2022-10-13T08:55:45.366Z,5.95
2022-10-13T08:58:23.675Z,6.88
2022-10-13T09:01:10.843Z,6.93
2022-10-13T09:03:58.217Z,6.85
2022-10-13T09:06:29.208Z,7.63
2022-10-13T09:08:59.377Z,7.18
2022-10-13T09:11:34.073Z,8.05
2022-10-13T09:14:10.878Z,10.05
2022-10-13T09:16:44.788Z,9.38
2022-10-13T09:19:23.721Z,8.20
2022-10-13T09:21:54.392Z,9.20
2022-10-13T09:24:23.693Z,6.93
2022-10-13T09:27:12.964Z,7.15
2022-10-13T09:29:40.370Z,6.10
2022-10-13T09:32:18.866Z,6.93
2022-10-13T09:34:46.911Z,6.45
2022-10-13T09:37:31.819Z,6.05
2022-10-13T09:40:21.545Z,6.67
2022-10-13T09:42:58.833Z,9.43
2022-10-13T09:45:27.313Z,9.35
2022-10-13T09:48:04.959Z,9.63
2022-10-13T09:50:34.924Z,10.13
2022-10-13T09:53:31.262Z,9.25
2022-10-13T09:56:08.854Z,9.10
2022-10-13T10:01:35.355Z,9.30
2022-10-13T10:04:07.179Z,9.20
2022-10-13T10:06:34.981Z,9.25
2022-10-13T10:09:17.744Z,8.15
2022-10-13T10:11:47.832Z,8.98
2022-10-13T10:14:26.379Z,10.05
2022-10-13T10:17:02.591Z,10.02
2022-10-13T10:19:48.938Z,9.65
2022-10-13T10:22:44.504Z,9.65
2022-10-13T10:25:26.094Z,10.77
2022-10-13T10:28:34.313Z,7.85
2022-10-13T10:31:09.749Z,8.43
2022-10-13T10:36:53.505Z,9.40
2022-10-13T10:39:41.390Z,8.35
2022-10-13T10:42:51.157Z,8.95
2022-10-13T10:45:26.230Z,9.45
2022-10-13T10:48:04.073Z,9.90
2022-10-13T10:50:33.425Z,8.88
2022-10-13T10:53:08.101Z,8.82
2022-10-13T10:55:53.376Z,7.80
2022-10-13T10:58:26.475Z,8.52
2022-10-13T11:01:06.991Z,8.15
2022-10-13T11:03:40.473Z,8.55
2022-10-13T11:06:13.921Z,9.70
2022-10-13T11:08:43.786Z,9.18
2022-10-13T11:11:26.574Z,9.93
2022-10-13T11:14:00.511Z,8.40
2022-10-13T11:16:58.480Z,7.85
2022-10-13T11:19:32.082Z,8.23
2022-10-13T11:21:59.026Z,9.98
2022-10-13T11:24:35.037Z,9.25
2022-10-13T11:27:17.284Z,9.98
2022-10-13T11:29:47.351Z,9.27
2022-10-13T11:32:35.494Z,8.07
2022-10-13T11:35:05.376Z,7.20
2022-10-13T11:38:14.008Z,9.02
2022-10-13T11:41:14.956Z,8.80
2022-10-13T11:44:01.217Z,8.55
2022-10-13T11:46:57.705Z,8.07
2022-10-13T11:49:45.641Z,7.95
2022-10-13T11:52:46.274Z,7.53
